Time;durP1;ratioP1;P1;durP2;ratioP2;P2;SDS_P1;SDS_P2;PMS_P1;PMS_P2;Temp;Humidity;BMP_temperature;BMP_pressure;BME280_temperature;BME280_humidity;BME280_pressure;Samples;Min_cycle;Max_cycle;Signal;HPM_P1;HPM_P2
2023/02/16 08:18:09;;;;;;;19.40;8.77;;;8.80;99.90;;;;;;4684122;23;20276;-68
2023/02/16 08:20:36;;;;;;;16.93;8.70;;;8.70;99.90;;;;;;4993269;28;20218;-68
2023/02/16 08:23:04;;;;;;;18.73;9.00;;;8.80;99.90;;;;;;4993767;28;20206;-69
2023/02/16 08:25:32;;;;;;;19.43;9.17;;;8.80;99.90;;;;;;4993458;28;20234;-68
2023/02/16 08:27:59;;;;;;;20.73;9.00;;;8.90;99.90;;;;;;4989012;28;20213;-70
2023/02/16 08:30:26;;;;;;;16.27;8.07;;;8.90;99.90;;;;;;4991877;28;20213;-70
2023/02/16 08:32:55;;;;;;;21.03;9.00;;;8.90;99.90;;;;;;4992538;28;20301;-68
2023/02/16 08:35:23;;;;;;;20.07;9.07;;;8.90;99.90;;;;;;4991125;28;20597;-69
2023/02/16 08:37:50;;;;;;;23.43;9.27;;;8.90;99.90;;;;;;4992278;28;20206;-69
2023/02/16 08:40:17;;;;;;;18.93;8.37;;;8.80;99.90;;;;;;4992076;28;20214;-69
2023/02/16 08:42:44;;;;;;;17.20;8.73;;;8.90;99.90;;;;;;4992592;28;20221;-68
2023/02/16 08:45:13;;;;;;;17.07;8.67;;;8.90;99.90;;;;;;4993390;28;20589;-67
2023/02/16 08:47:40;;;;;;;17.93;9.07;;;8.90;99.90;;;;;;4993519;28;20997;-68
2023/02/16 08:50:07;;;;;;;21.17;9.10;;;9.00;99.90;;;;;;4993334;28;20209;-68
2023/02/16 08:52:36;;;;;;;20.93;9.13;;;9.00;99.90;;;;;;4993969;28;20208;-68
2023/02/16 08:55:03;;;;;;;18.23;9.13;;;9.00;99.90;;;;;;4993177;28;20244;-67
2023/02/16 08:57:33;;;;;;;17.50;8.50;;;9.10;99.90;;;;;;4990059;28;20230;-68
2023/02/16 09:02:44;;;;;;;19.57;9.13;;;9.00;99.90;;;;;;4982009;28;20660;-67
2023/02/16 09:05:12;;;;;;;19.27;8.77;;;9.10;99.90;;;;;;4991461;28;20241;-68
2023/02/16 09:07:40;;;;;;;19.40;8.40;;;9.10;99.90;;;;;;4992054;28;20206;-68
2023/02/16 09:10:07;;;;;;;19.17;9.03;;;9.00;99.90;;;;;;4992110;28;20206;-73
2023/02/16 09:12:35;;;;;;;20.17;9.10;;;9.00;99.90;;;;;;4991227;28;20711;-69
2023/02/16 09:15:02;;;;;;;21.63;8.93;;;8.90;99.90;;;;;;4992981;28;20242;-68
2023/02/16 09:17:29;;;;;;;19.37;9.40;;;8.90;99.90;;;;;;4993117;28;20245;-69
2023/02/16 09:19:56;;;;;;;22.27;9.43;;;9.00;99.90;;;;;;4993305;28;20218;-68
2023/02/16 09:22:23;;;;;;;20.03;10.27;;;9.00;99.90;;;;;;4993437;28;20207;-68
2023/02/16 09:24:51;;;;;;;20.27;9.73;;;9.00;99.90;;;;;;4993285;28;20349;-68
2023/02/16 09:27:19;;;;;;;18.50;9.57;;;8.90;99.90;;;;;;4993199;28;20203;-68
2023/02/16 09:29:45;;;;;;;18.33;9.87;;;8.90;99.90;;;;;;4993388;28;20206;-70
2023/02/16 09:32:12;;;;;;;17.07;9.20;;;8.90;99.90;;;;;;4993346;28;20206;-68
2023/02/16 09:34:39;;;;;;;18.23;9.53;;;9.00;99.90;;;;;;4992981;28;20233;-68
2023/02/16 09:37:06;;;;;;;21.37;9.43;;;9.00;99.90;;;;;;4993354;28;20203;-68
2023/02/16 09:39:32;;;;;;;21.93;10.23;;;9.00;99.90;;;;;;4993087;28;20213;-69
2023/02/16 09:42:14;;;;;;;20.10;9.33;;;9.00;99.90;;;;;;4993473;28;20673;-71
2023/02/16 09:44:50;;;;;;;20.20;9.83;;;9.00;99.90;;;;;;4992620;28;20230;-69
2023/02/16 09:47:23;;;;;;;18.70;9.30;;;9.00;99.90;;;;;;4994541;28;20661;-72
2023/02/16 09:49:51;;;;;;;21.70;10.33;;;8.90;99.90;;;;;;4996882;28;20210;-69
2023/02/16 09:52:25;;;;;;;19.33;9.53;;;8.90;99.90;;;;;;4996552;28;20286;-68
2023/02/16 09:54:53;;;;;;;21.53;9.13;;;8.90;99.90;;;;;;4996544;28;20237;-69
2023/02/16 09:57:29;;;;;;;20.67;10.00;;;9.00;99.90;;;;;;4996435;28;20217;-69
2023/02/16 10:00:03;;;;;;;21.37;9.67;;;9.00;99.90;;;;;;4996575;28;20210;-70
2023/02/16 10:02:46;;;;;;;22.23;10.90;;;9.20;99.90;;;;;;4996257;28;20212;-69
2023/02/16 10:05:21;;;;;;;19.50;9.03;;;9.20;99.90;;;;;;4995974;28;20233;-70
2023/02/16 10:07:58;;;;;;;22.40;9.73;;;9.40;99.90;;;;;;4996269;28;20656;-71
2023/02/16 10:10:31;;;;;;;18.60;9.43;;;9.40;99.90;;;;;;4996083;28;20206;-69
2023/02/16 10:13:04;;;;;;;19.87;9.77;;;9.30;99.90;;;;;;4996191;28;20206;-69
2023/02/16 10:15:33;;;;;;;16.17;8.63;;;9.40;99.90;;;;;;4995878;28;20242;-69
2023/02/16 10:18:06;;;;;;;19.50;9.30;;;9.40;99.90;;;;;;4995939;28;20206;-69
2023/02/16 10:20:36;;;;;;;21.43;9.73;;;9.30;99.90;;;;;;4996268;28;20218;-68
2023/02/16 10:23:14;;;;;;;20.57;9.80;;;9.30;99.90;;;;;;4996085;28;20206;-69
2023/02/16 10:25:45;;;;;;;19.97;9.97;;;9.40;99.90;;;;;;4995809;28;20704;-68
2023/02/16 10:28:17;;;;;;;18.20;8.83;;;9.50;99.90;;;;;;4995881;28;20207;-67
2023/02/16 10:30:49;;;;;;;16.90;8.73;;;9.80;99.90;;;;;;4995686;28;20215;-68
2023/02/16 10:33:21;;;;;;;21.50;10.03;;;9.90;99.90;;;;;;4996011;28;20211;-68
2023/02/16 10:35:52;;;;;;;19.37;8.60;;;9.90;99.90;;;;;;4995685;28;20248;-68
2023/02/16 10:38:25;;;;;;;20.77;9.20;;;10.10;99.90;;;;;;4996000;28;20210;-67
2023/02/16 10:40:57;;;;;;;21.20;9.77;;;10.20;99.90;;;;;;4995439;28;20230;-68
2023/02/16 10:43:39;;;;;;;19.87;9.53;;;10.40;99.90;;;;;;4995305;28;20278;-68
2023/02/16 10:46:10;;;;;;;20.93;9.23;;;10.40;99.90;;;;;;4995265;28;20226;-68
2023/02/16 10:48:37;;;;;;;19.73;9.83;;;10.40;99.90;;;;;;4995192;28;20626;-68
2023/02/16 10:51:09;;;;;;;23.03;9.37;;;10.40;99.90;;;;;;4995308;28;20206;-69
2023/02/16 10:53:42;;;;;;;14.67;8.60;;;10.40;99.90;;;;;;4995113;28;20212;-68
2023/02/16 10:56:38;;;;;;;20.13;8.70;;;10.50;99.90;;;;;;4995234;28;20241;-68
2023/02/16 10:59:18;;;;;;;16.67;8.17;;;10.90;99.90;;;;;;4995407;28;20202;-69
2023/02/16 11:01:48;;;;;;;16.10;8.07;;;11.30;99.90;;;;;;4995103;28;20203;-69
2023/02/16 11:04:37;;;;;;;17.07;7.80;;;11.50;99.90;;;;;;4995254;28;20230;-68
2023/02/16 11:07:09;;;;;;;20.37;8.57;;;11.50;99.90;;;;;;4995233;28;20221;-68
2023/02/16 11:09:37;;;;;;;14.57;7.43;;;11.60;99.90;;;;;;4995019;28;20207;-68
2023/02/16 11:12:15;;;;;;;15.97;7.57;;;11.50;99.90;;;;;;4995247;28;20220;-70
2023/02/16 11:14:49;;;;;;;18.37;7.87;;;11.70;99.90;;;;;;4995305;28;20230;-69
2023/02/16 11:17:18;;;;;;;14.77;7.40;;;11.90;99.90;;;;;;4995125;28;20233;-69
2023/02/16 11:19:51;;;;;;;14.63;7.83;;;11.90;99.90;;;;;;4994745;28;20222;-68
2023/02/16 11:22:47;;;;;;;16.07;7.73;;;12.00;99.90;;;;;;4994716;28;20229;-68
2023/02/16 11:25:22;;;;;;;16.93;6.90;;;11.90;99.90;;;;;;4994605;28;20230;-69
2023/02/16 11:27:54;;;;;;;14.13;7.57;;;11.80;99.90;;;;;;4995197;28;20210;-69
2023/02/16 11:30:31;;;;;;;16.33;7.60;;;12.00;99.90;;;;;;4994556;28;20206;-68
2023/02/16 11:33:00;;;;;;;15.70;7.10;;;12.20;99.90;;;;;;4994459;28;20272;-68
2023/02/16 11:35:27;;;;;;;18.53;8.07;;;12.30;99.90;;;;;;4994035;28;20233;-68
2023/02/16 11:37:54;;;;;;;15.80;6.93;;;12.50;99.90;;;;;;4994423;28;20209;-69
2023/02/16 11:40:24;;;;;;;13.23;7.30;;;12.70;99.90;;;;;;4994511;28;20206;-68
2023/02/16 11:42:53;;;;;;;15.97;7.03;;;12.80;99.90;;;;;;4994646;28;20573;-69
2023/02/16 11:45:27;;;;;;;13.43;6.83;;;12.90;99.90;;;;;;4994233;28;20586;-69
2023/02/16 11:47:56;;;;;;;13.70;6.77;;;13.00;99.90;;;;;;4994439;28;20264;-70
2023/02/16 11:50:27;;;;;;;15.37;7.40;;;13.10;99.90;;;;;;4994426;28;20210;-70
2023/02/16 11:52:56;;;;;;;14.43;6.67;;;12.90;99.90;;;;;;4994115;28;20265;-69
2023/02/16 11:55:31;;;;;;;14.80;6.50;;;12.80;99.90;;;;;;4994485;28;20626;-70
2023/02/16 11:58:17;;;;;;;16.33;7.07;;;12.60;99.90;;;;;;4994159;28;20205;-69
2023/02/16 12:00:57;;;;;;;13.87;6.83;;;12.60;99.90;;;;;;4994034;28;20218;-69
2023/02/16 12:03:36;;;;;;;12.80;6.97;;;12.50;99.90;;;;;;4994138;28;20585;-71
2023/02/16 12:06:29;;;;;;;17.23;6.07;;;12.50;99.90;;;;;;4993939;28;20229;-69
2023/02/16 12:09:06;;;;;;;13.27;7.00;;;12.30;99.90;;;;;;4994112;28;20210;-68
2023/02/16 12:11:41;;;;;;;10.63;5.97;;;12.40;99.90;;;;;;4993805;28;20542;-69
2023/02/16 12:14:44;;;;;;;12.73;6.43;;;12.70;99.90;;;;;;4993808;28;20218;-69
2023/02/16 12:17:28;;;;;;;14.37;6.80;;;12.80;99.90;;;;;;4958852;28;20237;-70
2023/02/16 12:20:02;;;;;;;13.33;6.67;;;12.90;99.90;;;;;;4993620;28;20249;-69
2023/02/16 12:22:38;;;;;;;14.90;7.20;;;12.90;99.90;;;;;;4994016;28;20237;-69
2023/02/16 12:25:26;;;;;;;11.33;6.27;;;13.10;99.90;;;;;;4993493;28;20704;-69
2023/02/16 12:28:03;;;;;;;11.73;5.90;;;12.80;99.90;;;;;;4993605;28;20214;-68
2023/02/16 12:30:45;;;;;;;12.17;6.20;;;13.00;99.90;;;;;;4993328;28;20297;-68
2023/02/16 12:33:30;;;;;;;9.70;5.33;;;13.10;99.90;;;;;;4993609;28;20207;-69
2023/02/16 12:36:11;;;;;;;11.23;5.47;;;13.20;99.90;;;;;;4993549;28;20237;-69
2023/02/16 12:38:48;;;;;;;10.27;5.30;;;13.20;99.90;;;;;;4993564;28;20229;-72
2023/02/16 12:41:25;;;;;;;13.97;5.63;;;13.20;99.90;;;;;;4993444;28;20213;-71
2023/02/16 12:43:57;;;;;;;13.30;6.00;;;13.10;99.90;;;;;;4993462;28;20210;-72
2023/02/16 12:46:29;;;;;;;9.83;5.77;;;13.20;99.90;;;;;;4993241;28;20210;-70
2023/02/16 12:49:00;;;;;;;12.27;6.07;;;13.20;99.90;;;;;;4993499;28;20217;-72
2023/02/16 12:51:34;;;;;;;13.50;6.23;;;13.20;99.90;;;;;;4993592;28;20210;-73
2023/02/16 12:54:09;;;;;;;14.87;6.53;;;13.10;99.90;;;;;;4993490;28;20653;-73
2023/02/16 12:56:39;;;;;;;12.67;6.20;;;13.10;99.90;;;;;;4992873;28;20241;-76
2023/02/16 12:59:17;;;;;;;17.20;6.27;;;12.90;99.90;;;;;;4986351;28;20257;-69
2023/02/16 13:01:46;;;;;;;12.33;5.97;;;12.90;99.90;;;;;;4992771;28;20206;-77
2023/02/16 13:04:21;;;;;;;13.10;6.00;;;13.00;99.90;;;;;;4992796;28;20657;-69
2023/02/16 13:06:52;;;;;;;16.40;6.30;;;13.00;99.90;;;;;;4992840;28;20653;-77
2023/02/16 13:09:32;;;;;;;10.87;6.50;;;13.00;99.90;;;;;;4993593;28;20228;-75
2023/02/16 13:12:05;;;;;;;13.50;6.27;;;13.10;99.90;;;;;;4993484;28;20327;-75
2023/02/16 13:14:36;;;;;;;12.33;6.37;;;13.10;99.90;;;;;;4993184;28;20720;-77
2023/02/16 13:17:10;;;;;;;12.50;6.40;;;13.20;99.90;;;;;;4992801;28;20304;-73
2023/02/16 13:19:38;;;;;;;14.03;6.63;;;13.00;99.90;;;;;;4992942;28;20670;-75
2023/02/16 13:22:28;;;;;;;12.40;6.03;;;13.10;99.90;;;;;;4994133;28;20211;-74
2023/02/16 13:25:09;;;;;;;12.97;6.70;;;13.20;99.90;;;;;;4990830;28;20254;-76
2023/02/16 13:27:46;;;;;;;13.23;6.53;;;13.20;99.90;;;;;;4991166;28;20305;-75
2023/02/16 13:30:47;;;;;;;11.83;6.27;;;13.20;99.90;;;;;;4994238;28;20301;-75
2023/02/16 13:33:40;;;;;;;16.60;6.17;;;13.20;99.90;;;;;;4996530;28;20696;-75
2023/02/16 13:36:34;;;;;;;17.77;7.10;;;13.30;99.90;;;;;;4976300;28;20237;-74
2023/02/16 13:39:36;;;;;;;11.77;6.07;;;13.40;99.90;;;;;;4987859;28;20211;-76
2023/02/16 13:42:22;;;;;;;11.30;5.97;;;13.50;99.90;;;;;;4999429;28;20564;-77
2023/02/16 13:44:54;;;;;;;12.57;6.13;;;13.60;99.90;;;;;;4996856;28;20226;-77
2023/02/16 13:47:26;;;;;;;12.53;5.67;;;13.50;99.90;;;;;;4996004;28;20673;-74
2023/02/16 13:49:57;;;;;;;10.17;4.93;;;13.30;99.90;;;;;;4996512;28;20292;-74
2023/02/16 13:52:32;;;;;;;11.27;5.20;;;13.30;99.90;;;;;;4997737;28;20218;-74
2023/02/16 13:55:02;;;;;;;12.77;5.83;;;13.20;99.90;;;;;;4999547;28;21339;-71
2023/02/16 13:57:59;;;;;;;12.47;5.30;;;13.10;99.90;;;;;;4999046;28;20320;-78
2023/02/16 14:00:29;;;;;;;10.73;5.30;;;12.90;99.90;;;;;;4997593;28;20656;-74
2023/02/16 14:03:02;;;;;;;11.13;4.97;;;12.90;99.90;;;;;;4995875;28;20215;-75
2023/02/16 14:05:33;;;;;;;10.13;5.77;;;12.90;99.90;;;;;;4995965;28;20284;-72
2023/02/16 14:08:22;;;;;;;9.60;5.70;;;12.90;99.90;;;;;;4995848;28;20569;-75
2023/02/16 14:11:10;;;;;;;12.93;6.13;;;13.00;99.90;;;;;;4996415;28;20661;-73
2023/02/16 14:13:46;;;;;;;13.83;5.93;;;13.00;99.90;;;;;;4996171;28;20214;-78
2023/02/16 14:16:32;;;;;;;11.87;6.40;;;13.00;99.90;;;;;;4996440;28;20689;-72
2023/02/16 14:19:05;;;;;;;12.93;6.00;;;13.10;99.90;;;;;;4996003;28;20277;-77
2023/02/16 14:21:38;;;;;;;11.67;6.23;;;13.20;99.90;;;;;;4995831;28;20203;-78
2023/02/16 14:24:12;;;;;;;9.77;5.17;;;13.20;99.90;;;;;;4995689;28;20211;-72
2023/02/16 14:27:01;;;;;;;13.27;5.77;;;13.20;99.90;;;;;;4995822;28;20214;-74
2023/02/16 14:29:31;;;;;;;9.07;5.40;;;13.10;99.90;;;;;;4991735;28;20565;-69
2023/02/16 14:32:05;;;;;;;12.83;5.63;;;13.00;99.90;;;;;;4995745;28;20206;-76
2023/02/16 14:34:38;;;;;;;10.93;5.43;;;13.00;99.90;;;;;;4995405;28;20625;-76
2023/02/16 14:37:27;;;;;;;9.90;5.03;;;13.00;99.90;;;;;;4995658;28;20238;-74
2023/02/16 14:40:03;;;;;;;11.90;5.60;;;13.00;99.90;;;;;;4995635;28;20653;-78
2023/02/16 14:42:32;;;;;;;11.67;5.60;;;13.00;99.90;;;;;;4995557;28;20212;-75
2023/02/16 14:45:17;;;;;;;7.20;4.80;;;13.10;99.90;;;;;;4995642;28;20234;-69
2023/02/16 14:47:54;;;;;;;11.87;5.30;;;13.10;99.90;;;;;;4995238;28;20566;-76
2023/02/16 14:50:33;;;;;;;12.27;5.40;;;13.10;99.90;;;;;;4995250;28;20557;-76
2023/02/16 14:53:42;;;;;;;13.27;5.17;;;13.10;99.90;;;;;;4994841;28;20246;-76
2023/02/16 14:56:38;;;;;;;9.13;4.80;;;13.20;99.90;;;;;;4994946;28;20226;-77
2023/02/16 14:59:13;;;;;;;10.37;4.97;;;13.20;99.90;;;;;;4994972;28;20202;-76
2023/02/16 15:01:41;;;;;;;12.07;5.00;;;13.00;99.90;;;;;;4995183;28;20213;-76
2023/02/16 15:04:09;;;;;;;10.13;4.90;;;13.00;99.90;;;;;;4995154;28;20210;-76
2023/02/16 15:06:41;;;;;;;12.10;5.13;;;13.10;99.90;;;;;;4995378;28;20232;-76
2023/02/16 15:09:16;;;;;;;10.10;5.27;;;13.10;99.90;;;;;;4995044;28;20245;-77
2023/02/16 15:14:41;;;;;;;8.73;4.33;;;13.00;99.90;;;;;;4984712;28;20223;-69
2023/02/16 15:17:10;;;;;;;10.60;5.50;;;13.00;99.90;;;;;;4995466;28;20324;-70
2023/02/16 15:19:38;;;;;;;8.90;5.00;;;13.00;99.90;;;;;;4994252;28;20207;-76
2023/02/16 15:22:10;;;;;;;11.10;4.57;;;12.90;99.90;;;;;;4994395;28;20214;-69
2023/02/16 15:24:37;;;;;;;10.53;4.70;;;12.80;99.90;;;;;;4994316;28;20596;-76
2023/02/16 15:27:05;;;;;;;9.97;4.90;;;12.80;99.90;;;;;;4994591;28;20428;-69
2023/02/16 15:29:32;;;;;;;10.77;5.83;;;12.60;99.90;;;;;;4994069;28;20222;-73
2023/02/16 15:32:00;;;;;;;10.10;5.67;;;12.60;99.90;;;;;;4994738;28;20213;-67
2023/02/16 15:34:32;;;;;;;15.40;4.87;;;12.50;99.90;;;;;;4993510;28;20570;-69
2023/02/16 15:37:01;;;;;;;14.87;5.97;;;12.50;99.90;;;;;;4994344;28;20238;-69
2023/02/16 15:39:30;;;;;;;11.13;5.70;;;12.50;99.90;;;;;;4993587;28;20301;-71
2023/02/16 15:42:19;;;;;;;12.77;5.10;;;12.50;99.90;;;;;;4994169;28;20222;-69
2023/02/16 15:44:46;;;;;;;8.43;4.83;;;12.50;99.90;;;;;;4993281;28;20269;-72
2023/02/16 15:47:16;;;;;;;8.77;5.07;;;12.50;99.90;;;;;;4993263;28;20272;-70
2023/02/16 15:49:43;;;;;;;9.73;5.43;;;12.40;99.90;;;;;;4993418;28;20264;-69
2023/02/16 15:52:15;;;;;;;14.40;5.43;;;12.30;99.90;;;;;;4994024;28;20206;-69
2023/02/16 15:54:43;;;;;;;11.50;5.67;;;12.20;99.90;;;;;;4994147;28;20222;-68
2023/02/16 15:57:20;;;;;;;10.93;5.30;;;12.10;99.90;;;;;;4993990;28;20230;-71
2023/02/16 15:59:49;;;;;;;14.60;5.13;;;12.00;99.90;;;;;;4994165;28;20208;-68
2023/02/16 16:02:18;;;;;;;10.47;5.10;;;11.90;99.90;;;;;;4994022;28;20565;-68
2023/02/16 16:04:48;;;;;;;10.67;5.10;;;11.70;99.90;;;;;;4993978;28;20231;-68
2023/02/16 16:07:18;;;;;;;9.97;5.10;;;11.70;99.90;;;;;;4994210;28;20211;-68
2023/02/16 16:09:46;;;;;;;11.13;5.37;;;11.60;99.90;;;;;;4993909;28;20677;-68
2023/02/16 16:12:17;;;;;;;12.93;4.87;;;11.50;99.90;;;;;;4994235;28;20212;-68
2023/02/16 16:14:50;;;;;;;10.23;5.50;;;11.40;99.90;;;;;;4993706;28;20226;-68
2023/02/16 16:17:21;;;;;;;11.50;5.60;;;11.30;99.90;;;;;;4993951;28;20239;-68
2023/02/16 16:19:49;;;;;;;12.77;4.90;;;11.40;99.90;;;;;;4993373;28;20214;-68
2023/02/16 16:22:31;;;;;;;11.00;5.07;;;11.40;99.90;;;;;;4993852;28;20260;-70
2023/02/16 16:24:59;;;;;;;12.03;5.33;;;11.30;99.90;;;;;;4993964;28;20604;-69
2023/02/16 16:27:34;;;;;;;13.83;6.03;;;11.30;99.90;;;;;;4993905;28;20676;-69
2023/02/16 16:30:24;;;;;;;14.10;6.23;;;11.30;99.90;;;;;;4993763;28;20202;-71
2023/02/16 16:32:59;;;;;;;17.27;6.60;;;11.30;99.90;;;;;;4993485;28;20203;-69
2023/02/16 16:35:35;;;;;;;9.63;5.33;;;11.30;99.90;;;;;;4993489;28;20704;-68
2023/02/16 16:38:02;;;;;;;13.60;6.33;;;11.20;99.90;;;;;;4993951;28;20245;-67
2023/02/16 16:40:33;;;;;;;11.37;6.13;;;11.10;99.90;;;;;;4993915;28;20217;-69
2023/02/16 16:43:14;;;;;;;12.77;6.53;;;11.10;99.90;;;;;;4993770;28;20206;-69
2023/02/16 16:45:42;;;;;;;13.57;6.77;;;10.90;99.90;;;;;;4993351;28;20222;-69
2023/02/16 16:48:15;;;;;;;13.30;6.13;;;10.90;99.90;;;;;;4993387;28;20209;-68
2023/02/16 16:50:42;;;;;;;14.80;6.37;;;10.90;99.90;;;;;;4993572;28;20206;-67
2023/02/16 16:53:41;;;;;;;11.77;6.60;;;10.90;99.90;;;;;;4993597;28;20657;-68
2023/02/16 16:56:10;;;;;;;12.63;6.53;;;10.80;99.90;;;;;;4989526;28;20222;-69
2023/02/16 16:58:38;;;;;;;11.83;6.30;;;10.80;99.90;;;;;;4997611;28;20241;-68
2023/02/16 17:01:05;;;;;;;13.80;6.97;;;10.80;99.90;;;;;;4997379;28;20558;-67
2023/02/16 17:03:32;;;;;;;17.83;7.67;;;10.70;99.90;;;;;;4997345;28;20579;-68
2023/02/16 17:05:59;;;;;;;11.57;6.43;;;10.70;99.90;;;;;;4997507;28;20233;-68
2023/02/16 17:08:26;;;;;;;10.20;6.17;;;10.60;99.90;;;;;;4997396;28;20739;-68
2023/02/16 17:10:52;;;;;;;12.47;6.50;;;10.70;99.90;;;;;;4997594;28;20208;-68
2023/02/16 17:13:20;;;;;;;12.17;6.80;;;10.70;99.90;;;;;;4997204;28;20216;-68
2023/02/16 17:15:55;;;;;;;13.83;7.10;;;10.70;99.90;;;;;;4997243;28;20222;-68
2023/02/16 17:18:22;;;;;;;15.80;7.67;;;10.60;99.90;;;;;;4997044;28;20233;-68
2023/02/16 17:20:50;;;;;;;15.40;7.70;;;10.70;99.90;;;;;;4996950;28;20577;-69
2023/02/16 17:23:19;;;;;;;13.83;7.27;;;10.70;99.90;;;;;;4996745;28;20202;-68
2023/02/16 17:25:46;;;;;;;14.10;7.90;;;10.60;99.90;;;;;;4996679;28;20234;-68
2023/02/16 17:28:15;;;;;;;16.17;7.10;;;10.70;99.90;;;;;;4996906;28;20206;-69
2023/02/16 17:30:42;;;;;;;11.40;6.50;;;10.70;99.90;;;;;;4992399;28;20237;-72
2023/02/16 17:33:11;;;;;;;15.30;7.23;;;10.70;99.90;;;;;;4991811;28;20216;-72
2023/02/16 17:35:40;;;;;;;12.57;6.33;;;10.70;99.90;;;;;;4994604;28;20233;-68
2023/02/16 17:38:08;;;;;;;13.63;6.43;;;10.70;99.90;;;;;;4994843;28;20965;-71
2023/02/16 17:40:35;;;;;;;16.07;7.27;;;10.80;99.90;;;;;;4995061;28;20202;-71
2023/02/16 17:43:02;;;;;;;15.63;7.33;;;10.80;99.90;;;;;;4994685;28;20202;-68
2023/02/16 17:45:29;;;;;;;15.97;7.53;;;10.80;99.90;;;;;;4994990;28;20218;-69
2023/02/16 17:47:56;;;;;;;14.13;6.67;;;10.80;99.90;;;;;;4995034;28;20560;-74
2023/02/16 17:50:24;;;;;;;14.33;6.43;;;10.80;99.90;;;;;;4994568;28;20209;-74
2023/02/16 17:52:55;;;;;;;19.77;7.33;;;10.90;99.90;;;;;;4994826;28;20210;-70
2023/02/16 17:55:22;;;;;;;12.90;6.07;;;10.80;99.90;;;;;;4994059;28;20223;-75
2023/02/16 17:57:49;;;;;;;14.23;6.87;;;10.90;99.90;;;;;;4994932;28;20689;-70
2023/02/16 18:00:19;;;;;;;13.30;6.40;;;10.90;99.90;;;;;;4994535;28;20212;-70
2023/02/16 18:02:46;;;;;;;15.43;7.30;;;10.90;99.90;;;;;;4994395;28;20217;-73
2023/02/16 18:05:13;;;;;;;12.50;6.40;;;10.90;99.90;;;;;;4994364;28;20234;-74
2023/02/16 18:07:41;;;;;;;14.23;6.97;;;10.90;99.90;;;;;;4994065;28;20305;-75
2023/02/16 18:10:16;;;;;;;14.63;6.07;;;10.90;99.90;;;;;;4994613;28;20214;-73
2023/02/16 18:12:43;;;;;;;11.20;6.13;;;11.00;99.90;;;;;;4994688;28;20216;-71
2023/02/16 18:15:10;;;;;;;12.13;6.40;;;11.10;99.90;;;;;;4994522;28;20236;-71
2023/02/16 18:17:36;;;;;;;19.90;7.03;;;11.00;99.90;;;;;;4994974;28;20242;-70
2023/02/16 18:20:04;;;;;;;17.33;6.63;;;11.00;99.90;;;;;;4989366;28;20214;-71
2023/02/16 18:22:31;;;;;;;13.67;6.77;;;11.00;99.90;;;;;;4994804;28;20209;-74
2023/02/16 18:24:59;;;;;;;17.63;7.27;;;11.00;99.90;;;;;;4994382;28;20222;-70
2023/02/16 18:27:26;;;;;;;12.37;7.03;;;10.90;99.90;;;;;;4993144;28;20213;-72
2023/02/16 18:29:52;;;;;;;13.40;7.00;;;11.00;99.90;;;;;;4993720;28;20214;-72
2023/02/16 18:32:19;;;;;;;14.10;7.40;;;10.90;99.90;;;;;;4994492;28;20210;-72
2023/02/16 18:34:46;;;;;;;18.17;5.77;;;10.90;99.90;;;;;;4993526;28;20234;-72
2023/02/16 18:37:13;;;;;;;14.90;6.53;;;10.80;99.90;;;;;;4994507;28;20201;-72
2023/02/16 18:39:41;;;;;;;13.23;7.30;;;10.80;99.90;;;;;;4995164;28;20213;-73
2023/02/16 18:42:10;;;;;;;12.67;6.40;;;10.80;99.90;;;;;;4994855;28;20569;-72
2023/02/16 18:44:37;;;;;;;13.17;7.03;;;10.80;99.90;;;;;;4994937;28;20318;-71
2023/02/16 18:47:04;;;;;;;14.10;7.37;;;10.80;99.90;;;;;;4995723;28;20233;-71
2023/02/16 18:49:30;;;;;;;15.83;7.23;;;10.80;99.90;;;;;;4994810;28;20202;-71
2023/02/16 18:51:57;;;;;;;14.50;7.13;;;10.80;99.90;;;;;;4995207;28;20210;-71
2023/02/16 18:54:24;;;;;;;16.10;7.10;;;10.80;99.90;;;;;;4995160;28;20252;-72
2023/02/16 18:56:51;;;;;;;15.77;7.60;;;10.80;99.90;;;;;;4994946;28;20206;-71
2023/02/16 18:59:19;;;;;;;15.93;7.83;;;10.70;99.90;;;;;;4994619;28;20317;-71
2023/02/16 19:01:46;;;;;;;17.97;7.60;;;10.70;99.90;;;;;;4995197;28;20203;-71
2023/02/16 19:04:13;;;;;;;15.47;7.57;;;10.70;99.90;;;;;;4994512;28;20207;-69
2023/02/16 19:06:39;;;;;;;14.53;7.60;;;10.70;99.90;;;;;;4994501;28;20315;-71
2023/02/16 19:09:06;;;;;;;14.83;7.40;;;10.70;99.90;;;;;;4994064;28;20209;-73
2023/02/16 19:11:33;;;;;;;15.53;7.50;;;10.70;99.90;;;;;;4994172;28;20207;-72
2023/02/16 19:14:00;;;;;;;12.80;6.87;;;10.70;99.90;;;;;;4994588;28;20206;-72
2023/02/16 19:16:28;;;;;;;14.70;7.53;;;10.60;99.90;;;;;;4993993;28;20673;-73
2023/02/16 19:18:55;;;;;;;16.73;7.43;;;10.60;99.90;;;;;;4993578;28;20227;-73
2023/02/16 19:21:22;;;;;;;15.23;7.87;;;10.60;99.90;;;;;;4994334;28;20576;-71
2023/02/16 19:23:49;;;;;;;13.77;6.77;;;10.50;99.90;;;;;;4994364;28;20206;-71
2023/02/16 19:26:17;;;;;;;14.70;7.60;;;10.60;99.90;;;;;;4994609;28;20241;-71
2023/02/16 19:28:44;;;;;;;12.63;6.10;;;10.60;99.90;;;;;;4994375;28;20652;-72
2023/02/16 19:31:17;;;;;;;13.43;6.93;;;10.70;99.90;;;;;;4994586;28;20216;-72
2023/02/16 19:33:45;;;;;;;11.07;6.00;;;10.70;99.90;;;;;;4994271;28;20207;-72
2023/02/16 19:36:12;;;;;;;11.13;6.13;;;10.70;99.90;;;;;;4994126;28;20232;-71
2023/02/16 19:38:40;;;;;;;12.63;6.53;;;10.70;99.90;;;;;;4985727;28;20251;-74
2023/02/16 19:41:09;;;;;;;15.03;6.50;;;10.80;99.90;;;;;;4987357;28;20210;-74
2023/02/16 19:43:36;;;;;;;13.20;7.07;;;10.70;99.90;;;;;;4992378;28;20210;-75
2023/02/16 19:46:03;;;;;;;14.93;7.67;;;10.70;99.90;;;;;;4991965;28;20222;-71
2023/02/16 19:48:30;;;;;;;15.63;7.60;;;10.70;99.90;;;;;;4992982;28;20661;-70
2023/02/16 19:50:59;;;;;;;14.57;7.83;;;10.70;99.90;;;;;;4992622;28;20202;-71
2023/02/16 19:53:25;;;;;;;13.73;8.27;;;10.70;99.90;;;;;;4991635;28;20234;-74
2023/02/16 19:55:53;;;;;;;16.57;9.27;;;10.80;99.90;;;;;;4992322;28;20577;-73
2023/02/16 19:58:20;;;;;;;18.43;8.70;;;10.80;99.90;;;;;;4988538;28;20230;-70
2023/02/16 20:00:47;;;;;;;15.37;8.60;;;10.80;99.90;;;;;;4993899;28;20669;-72
2023/02/16 20:03:14;;;;;;;14.17;7.77;;;10.90;99.90;;;;;;4994121;28;20210;-72
2023/02/16 20:05:41;;;;;;;14.00;7.73;;;10.80;99.90;;;;;;4993832;28;20697;-71
2023/02/16 20:08:09;;;;;;;15.03;7.67;;;10.80;99.90;;;;;;4994107;28;20687;-73
2023/02/16 20:10:39;;;;;;;14.13;7.70;;;10.80;99.90;;;;;;4993940;28;20228;-69
2023/02/16 20:13:06;;;;;;;12.90;6.73;;;10.80;99.90;;;;;;4993472;28;20215;-72
2023/02/16 20:15:33;;;;;;;16.17;7.67;;;10.80;99.90;;;;;;4993857;28;20229;-71
2023/02/16 20:18:00;;;;;;;12.60;6.70;;;10.90;99.90;;;;;;4993445;28;20289;-74
2023/02/16 20:20:27;;;;;;;11.43;6.33;;;10.90;99.90;;;;;;4993480;28;20211;-73
2023/02/16 20:22:53;;;;;;;10.07;6.53;;;10.90;99.90;;;;;;4993487;28;20206;-73
2023/02/16 20:25:22;;;;;;;10.87;5.30;;;11.00;99.90;;;;;;4993729;28;20234;-72
2023/02/16 20:27:48;;;;;;;11.87;6.30;;;11.00;99.90;;;;;;4993488;28;20221;-73
2023/02/16 20:30:19;;;;;;;10.37;5.87;;;11.00;99.90;;;;;;4992863;28;20700;-70
2023/02/16 20:32:46;;;;;;;11.10;6.13;;;11.00;99.90;;;;;;4993123;28;20206;-73
2023/02/16 20:35:13;;;;;;;11.30;6.30;;;11.00;99.90;;;;;;4992870;28;20237;-74
2023/02/16 20:37:40;;;;;;;11.90;5.87;;;11.10;99.90;;;;;;4993411;28;20206;-71
2023/02/16 20:40:08;;;;;;;9.80;5.80;;;11.10;99.90;;;;;;4993223;28;20234;-72
2023/02/16 20:42:36;;;;;;;10.13;5.63;;;11.10;99.90;;;;;;4993618;28;20210;-71
2023/02/16 20:45:04;;;;;;;10.40;5.73;;;11.10;99.90;;;;;;4993342;28;20226;-73
2023/02/16 20:47:31;;;;;;;11.07;5.40;;;11.10;99.90;;;;;;4993079;28;20221;-72
2023/02/16 20:49:58;;;;;;;7.60;4.47;;;11.10;99.90;;;;;;4992498;28;20226;-74
2023/02/16 20:52:24;;;;;;;7.43;4.33;;;11.20;99.90;;;;;;4993445;28;20213;-72
2023/02/16 20:54:51;;;;;;;9.00;4.73;;;11.20;99.90;;;;;;4992821;28;20725;-72
2023/02/16 20:57:18;;;;;;;9.10;4.60;;;11.30;99.90;;;;;;4993081;28;20657;-73
2023/02/16 20:59:46;;;;;;;7.60;4.40;;;11.30;99.90;;;;;;4993205;28;20237;-73
2023/02/16 21:02:13;;;;;;;9.77;4.53;;;11.30;99.90;;;;;;4993705;28;20210;-72
2023/02/16 21:04:40;;;;;;;7.83;4.10;;;11.20;99.90;;;;;;4993514;28;20240;-73
2023/02/16 21:07:07;;;;;;;6.30;3.77;;;11.20;99.90;;;;;;4993540;28;20215;-70
2023/02/16 21:09:33;;;;;;;11.43;4.53;;;11.30;99.90;;;;;;4993566;28;20210;-73
2023/02/16 21:12:00;;;;;;;7.73;4.07;;;11.30;99.90;;;;;;4993372;28;20210;-73
2023/02/16 21:14:27;;;;;;;7.67;3.80;;;11.30;99.90;;;;;;4993272;28;20233;-73
2023/02/16 21:16:55;;;;;;;6.60;3.90;;;11.30;99.90;;;;;;4993012;28;20206;-69
2023/02/16 21:19:22;;;;;;;5.97;3.40;;;11.30;99.90;;;;;;4993100;28;20234;-73
2023/02/16 21:21:49;;;;;;;5.67;3.27;;;11.40;99.90;;;;;;4993470;28;20206;-72
2023/02/16 21:24:16;;;;;;;5.07;2.83;;;11.40;99.90;;;;;;4993069;28;20242;-73
2023/02/16 21:26:42;;;;;;;6.53;3.30;;;11.40;99.90;;;;;;4993190;28;20209;-69